Time;durP1;ratioP1;P1;durP2;ratioP2;P2;SDS_P1;SDS_P2;PMS_P1;PMS_P2;Temp;Humidity;BMP_temperature;BMP_pressure;BME280_temperature;BME280_humidity;BME280_pressure;Samples;Min_cycle;Max_cycle;Signal;HPM_P1;HPM_P2
2021/10/29 00:00:56;;;;;;;10.53;9.43;;;13.40;99.90;;;;;;5135072;27;20755;-76
2021/10/29 00:03:24;;;;;;;13.30;9.53;;;13.60;99.90;;;;;;5134493;27;20247;-76
2021/10/29 00:05:51;;;;;;;14.40;9.60;;;13.40;99.90;;;;;;5114247;28;20301;-76
2021/10/29 00:08:17;;;;;;;13.53;9.00;;;13.50;99.90;;;;;;5114919;28;20252;-77
2021/10/29 00:10:44;;;;;;;11.03;9.30;;;13.60;99.90;;;;;;5114049;28;20657;-77
2021/10/29 00:13:11;;;;;;;10.93;7.70;;;13.50;99.90;;;;;;5114318;28;20293;-76
2021/10/29 00:15:40;;;;;;;11.20;9.33;;;13.40;99.90;;;;;;5114597;28;20232;-76
2021/10/29 00:18:07;;;;;;;12.33;8.83;;;13.50;99.90;;;;;;5113741;28;20292;-77
2021/10/29 00:20:34;;;;;;;10.47;8.60;;;13.40;99.90;;;;;;5114743;27;20233;-76
2021/10/29 00:23:01;;;;;;;11.33;8.37;;;13.40;99.90;;;;;;5114815;28;20240;-76
2021/10/29 00:25:28;;;;;;;10.40;8.30;;;13.40;99.90;;;;;;5113846;28;20712;-76
2021/10/29 00:27:55;;;;;;;10.23;7.97;;;13.40;99.90;;;;;;5113044;28;20202;-76
2021/10/29 00:30:22;;;;;;;12.00;9.03;;;13.40;99.90;;;;;;5114559;28;20281;-76
2021/10/29 00:32:51;;;;;;;10.80;8.60;;;13.40;99.90;;;;;;5113951;28;20661;-77
2021/10/29 00:35:18;;;;;;;12.27;8.50;;;13.40;99.90;;;;;;5113614;28;20190;-77
2021/10/29 00:37:45;;;;;;;14.70;8.20;;;13.50;99.90;;;;;;5113947;28;20194;-77
2021/10/29 00:40:14;;;;;;;10.47;8.40;;;13.50;99.90;;;;;;5113712;28;20782;-76
2021/10/29 00:42:42;;;;;;;12.93;8.80;;;13.30;99.90;;;;;;5113978;28;20205;-77
2021/10/29 00:45:10;;;;;;;10.07;7.90;;;13.40;99.90;;;;;;5113632;28;20249;-77
2021/10/29 00:47:37;;;;;;;10.20;7.97;;;13.30;99.90;;;;;;5113553;28;20710;-77
2021/10/29 00:50:06;;;;;;;9.33;7.90;;;13.40;99.90;;;;;;5114057;28;20288;-77
2021/10/29 00:52:33;;;;;;;10.73;7.47;;;13.60;99.90;;;;;;5114215;28;20200;-77
2021/10/29 00:55:01;;;;;;;11.00;8.10;;;13.40;99.90;;;;;;5113156;28;20196;-77
2021/10/29 00:57:28;;;;;;;13.20;8.30;;;13.50;99.90;;;;;;5113776;28;20197;-77
2021/10/29 00:59:56;;;;;;;11.40;8.37;;;13.40;99.90;;;;;;5113213;28;20699;-77
2021/10/29 01:02:22;;;;;;;9.97;8.07;;;13.60;99.90;;;;;;5113361;28;20624;-77
2021/10/29 01:04:49;;;;;;;9.93;8.00;;;13.60;99.90;;;;;;5113217;28;20253;-77
2021/10/29 01:07:18;;;;;;;11.13;8.03;;;13.50;99.90;;;;;;5113281;28;20615;-77
2021/10/29 01:09:45;;;;;;;10.87;7.80;;;13.50;99.90;;;;;;5113171;28;20619;-76
2021/10/29 01:12:12;;;;;;;10.00;7.97;;;13.50;99.90;;;;;;5113332;28;20198;-77
2021/10/29 01:14:39;;;;;;;9.90;7.87;;;13.50;99.90;;;;;;5113348;28;20225;-77
2021/10/29 01:17:06;;;;;;;11.27;7.73;;;13.60;99.90;;;;;;5113181;28;20677;-77
2021/10/29 01:19:34;;;;;;;10.77;8.07;;;13.60;99.90;;;;;;5113171;28;20232;-77
2021/10/29 01:22:03;;;;;;;11.13;7.53;;;13.60;99.90;;;;;;5112858;28;20288;-77
2021/10/29 01:24:30;;;;;;;10.47;7.23;;;13.60;99.90;;;;;;5112914;28;20317;-76
2021/10/29 01:26:57;;;;;;;10.67;7.23;;;13.60;99.90;;;;;;5113394;28;20289;-77
2021/10/29 01:29:24;;;;;;;12.47;6.53;;;13.70;99.90;;;;;;5113105;28;20620;-77
2021/10/29 01:31:51;;;;;;;9.80;7.30;;;13.60;99.90;;;;;;5112502;28;20591;-76
2021/10/29 01:34:19;;;;;;;8.17;7.20;;;13.60;99.90;;;;;;5112609;27;20667;-78
2021/10/29 01:36:46;;;;;;;12.23;7.83;;;13.60;99.90;;;;;;5113304;28;20205;-76
2021/10/29 01:39:17;;;;;;;10.87;7.40;;;13.60;99.90;;;;;;5112426;28;20237;-77
2021/10/29 01:41:44;;;;;;;9.93;7.17;;;13.50;99.90;;;;;;5113188;28;20240;-77
2021/10/29 01:44:12;;;;;;;9.50;7.40;;;13.60;99.90;;;;;;5112881;28;20308;-77
2021/10/29 01:46:39;;;;;;;9.93;7.37;;;13.60;99.90;;;;;;5112996;28;20201;-77
2021/10/29 01:49:07;;;;;;;9.27;7.43;;;13.60;99.90;;;;;;5112858;28;20616;-77
2021/10/29 01:51:34;;;;;;;9.40;7.30;;;13.60;99.90;;;;;;5113293;28;20289;-77
2021/10/29 01:54:01;;;;;;;8.87;7.10;;;13.50;99.90;;;;;;5112473;28;20280;-77
2021/10/29 01:56:29;;;;;;;8.97;7.23;;;13.50;99.90;;;;;;5112502;28;20289;-77
2021/10/29 01:58:56;;;;;;;11.90;7.60;;;13.50;99.90;;;;;;5113173;28;20285;-77
2021/10/29 02:01:23;;;;;;;9.50;7.53;;;13.50;99.90;;;;;;5113012;28;20273;-76
2021/10/29 02:03:50;;;;;;;10.17;7.03;;;13.40;99.90;;;;;;5112155;28;20317;-76
2021/10/29 02:06:17;;;;;;;11.30;7.17;;;13.40;99.90;;;;;;5112561;28;20308;-76
2021/10/29 02:08:44;;;;;;;11.40;7.70;;;13.40;99.90;;;;;;5112596;28;20232;-76
2021/10/29 02:11:11;;;;;;;9.73;7.30;;;13.40;99.90;;;;;;5112488;28;20284;-76
2021/10/29 02:13:40;;;;;;;11.47;7.50;;;13.30;99.90;;;;;;5112690;28;20229;-77
2021/10/29 02:16:07;;;;;;;9.33;8.03;;;13.30;99.90;;;;;;5112503;28;20280;-76
2021/10/29 02:18:34;;;;;;;10.73;7.50;;;13.30;99.90;;;;;;5111918;28;20285;-76
2021/10/29 02:21:01;;;;;;;12.50;7.40;;;13.30;99.90;;;;;;5112119;28;20233;-76
2021/10/29 02:23:28;;;;;;;9.80;7.60;;;13.30;99.90;;;;;;5124900;28;20293;-77
2021/10/29 02:25:56;;;;;;;11.90;7.50;;;13.20;99.90;;;;;;5133240;27;20252;-77
2021/10/29 02:28:24;;;;;;;12.27;7.43;;;13.30;99.90;;;;;;5115246;27;20236;-76
2021/10/29 02:30:52;;;;;;;10.30;7.00;;;13.30;99.90;;;;;;5112423;28;20621;-77
2021/10/29 02:33:20;;;;;;;13.30;7.37;;;13.20;99.90;;;;;;5112796;28;20198;-77
2021/10/29 02:35:47;;;;;;;9.13;7.17;;;13.10;99.90;;;;;;5111933;28;20240;-77
2021/10/29 02:38:14;;;;;;;11.20;7.57;;;13.10;99.90;;;;;;5115901;28;20227;-76
2021/10/29 02:40:41;;;;;;;9.63;7.80;;;13.10;99.90;;;;;;5132816;27;20196;-77
2021/10/29 02:43:08;;;;;;;10.50;7.50;;;13.10;99.90;;;;;;5114329;27;20292;-77
2021/10/29 02:45:36;;;;;;;11.53;8.10;;;13.00;99.90;;;;;;5112256;28;20264;-76
2021/10/29 02:48:04;;;;;;;10.67;7.73;;;12.90;99.90;;;;;;5112357;28;20620;-77
2021/10/29 02:50:31;;;;;;;9.57;7.93;;;12.90;99.90;;;;;;5112880;27;20566;-77
2021/10/29 02:52:58;;;;;;;14.30;8.40;;;12.80;99.90;;;;;;5116510;27;20292;-77
2021/10/29 02:55:25;;;;;;;11.33;8.03;;;12.90;99.90;;;;;;5118622;27;20286;-77
2021/10/29 02:57:52;;;;;;;11.27;7.73;;;12.70;99.90;;;;;;5116580;27;20285;-76
2021/10/29 03:00:19;;;;;;;13.10;8.80;;;12.80;99.90;;;;;;5121894;27;20232;-77
2021/10/29 03:02:46;;;;;;;12.43;8.77;;;12.80;99.90;;;;;;5136676;27;20652;-77
2021/10/29 03:05:15;;;;;;;13.83;8.13;;;12.70;99.90;;;;;;5135932;27;20736;-77
2021/10/29 03:07:43;;;;;;;11.30;8.50;;;12.60;99.90;;;;;;5135864;27;20237;-77
2021/10/29 03:10:12;;;;;;;10.87;7.97;;;12.60;99.90;;;;;;5116039;28;20211;-77
2021/10/29 03:12:39;;;;;;;12.57;8.73;;;12.60;99.90;;;;;;5115718;27;20255;-77
2021/10/29 03:15:07;;;;;;;13.03;8.40;;;12.60;99.90;;;;;;5115585;28;20280;-77
2021/10/29 03:17:34;;;;;;;11.30;8.50;;;12.50;99.90;;;;;;5115913;28;20210;-77
2021/10/29 03:20:01;;;;;;;10.93;8.93;;;12.50;99.90;;;;;;5115087;28;20286;-77
2021/10/29 03:22:29;;;;;;;10.47;8.03;;;12.40;99.90;;;;;;5115704;28;20284;-77
2021/10/29 03:24:57;;;;;;;12.90;9.20;;;12.40;99.90;;;;;;5115414;28;20201;-77
2021/10/29 03:27:24;;;;;;;13.07;8.90;;;12.40;99.90;;;;;;5116242;27;20666;-77
2021/10/29 03:29:50;;;;;;;11.90;8.63;;;12.30;99.90;;;;;;5115609;28;20304;-77
2021/10/29 03:32:21;;;;;;;13.03;8.60;;;12.40;99.90;;;;;;5115580;28;20288;-76
2021/10/29 03:34:48;;;;;;;10.97;8.83;;;12.30;99.90;;;;;;5114840;28;20248;-77
2021/10/29 03:37:24;;;;;;;10.80;8.57;;;12.30;99.90;;;;;;5115173;28;20673;-77
2021/10/29 03:39:54;;;;;;;11.47;9.07;;;12.30;99.90;;;;;;5115104;28;20209;-76
2021/10/29 03:42:25;;;;;;;13.10;8.73;;;12.30;99.90;;;;;;5115079;28;20233;-77
2021/10/29 03:44:57;;;;;;;11.57;8.43;;;12.40;99.90;;;;;;5115109;28;20205;-76
2021/10/29 03:47:28;;;;;;;11.40;8.97;;;12.30;99.90;;;;;;5114834;28;20219;-76
2021/10/29 03:50:02;;;;;;;12.37;9.33;;;12.30;99.90;;;;;;5114564;28;20236;-77
2021/10/29 03:52:33;;;;;;;10.80;8.93;;;12.30;99.90;;;;;;5115041;28;20737;-77
2021/10/29 03:55:07;;;;;;;15.83;9.30;;;12.30;99.90;;;;;;5124504;27;20240;-76
2021/10/29 03:57:34;;;;;;;13.07;9.00;;;12.30;99.90;;;;;;5135515;27;20712;-77
2021/10/29 04:00:01;;;;;;;11.63;8.50;;;12.30;99.90;;;;;;5135229;27;20663;-76
2021/10/29 04:02:28;;;;;;;12.77;9.07;;;12.30;99.90;;;;;;5135331;27;20312;-76
2021/10/29 04:04:54;;;;;;;12.73;8.93;;;12.40;99.90;;;;;;5133985;27;20312;-77
2021/10/29 04:07:21;;;;;;;11.83;8.90;;;12.50;99.90;;;;;;5135558;27;20291;-76
2021/10/29 04:09:48;;;;;;;12.43;8.23;;;12.40;99.90;;;;;;5134976;27;20228;-77
2021/10/29 04:12:17;;;;;;;12.17;8.43;;;12.60;99.90;;;;;;5135067;27;20197;-77
2021/10/29 04:14:45;;;;;;;14.03;8.73;;;12.50;99.90;;;;;;5135232;27;20200;-77
2021/10/29 04:17:12;;;;;;;11.83;8.33;;;12.50;99.90;;;;;;5134622;27;20207;-76
2021/10/29 04:19:39;;;;;;;11.57;8.13;;;12.50;99.90;;;;;;5134918;27;20236;-77
2021/10/29 04:22:06;;;;;;;11.63;8.17;;;12.70;99.90;;;;;;5134988;27;20284;-77
2021/10/29 04:24:33;;;;;;;10.60;7.60;;;12.70;99.90;;;;;;5134363;27;20640;-77
2021/10/29 04:27:01;;;;;;;10.43;7.90;;;12.70;99.90;;;;;;5134628;27;20575;-77
2021/10/29 04:29:35;;;;;;;12.40;8.10;;;12.70;99.90;;;;;;5134989;27;20634;-77
2021/10/29 04:32:03;;;;;;;10.03;7.90;;;12.70;99.90;;;;;;5134502;27;20257;-77
2021/10/29 04:34:30;;;;;;;9.50;7.23;;;12.70;99.90;;;;;;5135216;27;20224;-77
2021/10/29 04:36:59;;;;;;;11.00;8.10;;;12.80;99.90;;;;;;5134775;27;20279;-77
2021/10/29 04:39:27;;;;;;;9.30;8.00;;;12.70;99.90;;;;;;5125590;27;20221;-77
2021/10/29 04:41:54;;;;;;;16.17;7.57;;;12.80;99.90;;;;;;5113980;28;20236;-77
2021/10/29 04:44:21;;;;;;;13.57;7.90;;;12.80;99.90;;;;;;5113819;28;20284;-77
2021/10/29 04:46:50;;;;;;;10.80;8.07;;;12.70;99.90;;;;;;5113563;28;20312;-77
2021/10/29 04:49:17;;;;;;;11.43;8.67;;;12.80;99.90;;;;;;5113678;28;20288;-77
2021/10/29 04:51:45;;;;;;;10.90;7.30;;;12.80;99.90;;;;;;5113721;28;20202;-77
2021/10/29 04:54:11;;;;;;;9.67;7.93;;;12.90;99.90;;;;;;5113968;28;20222;-76
2021/10/29 04:56:38;;;;;;;10.70;7.27;;;12.80;99.90;;;;;;5114224;28;20277;-76
2021/10/29 04:59:05;;;;;;;11.33;7.60;;;12.90;99.90;;;;;;5113330;28;20290;-76
2021/10/29 05:01:32;;;;;;;13.53;8.20;;;12.90;99.90;;;;;;5113698;28;20224;-76
2021/10/29 05:04:01;;;;;;;12.73;7.57;;;12.90;99.90;;;;;;5113519;28;20268;-76
2021/10/29 05:06:28;;;;;;;9.90;7.27;;;13.00;99.90;;;;;;5113678;28;20221;-76
2021/10/29 05:08:55;;;;;;;10.70;7.57;;;13.20;99.90;;;;;;5113581;28;20232;-77
2021/10/29 05:11:22;;;;;;;14.90;7.60;;;13.20;99.90;;;;;;5113599;28;20240;-77
2021/10/29 05:13:49;;;;;;;10.83;7.30;;;13.20;99.90;;;;;;5113122;28;20288;-77
2021/10/29 05:16:16;;;;;;;14.67;7.43;;;13.20;99.90;;;;;;5113507;28;20228;-76
2021/10/29 05:18:42;;;;;;;10.87;7.13;;;13.20;99.90;;;;;;5118541;27;20229;-76
2021/10/29 05:21:11;;;;;;;17.67;7.60;;;13.10;99.90;;;;;;5133791;27;20284;-77
2021/10/29 05:23:38;;;;;;;10.47;7.40;;;13.20;99.90;;;;;;5121338;27;20223;-77
2021/10/29 05:26:05;;;;;;;14.03;7.70;;;13.20;99.90;;;;;;5113389;28;20225;-77
2021/10/29 05:28:32;;;;;;;12.70;7.50;;;13.20;99.90;;;;;;5113063;28;20229;-77
2021/10/29 05:30:59;;;;;;;11.83;7.30;;;13.30;99.90;;;;;;5113173;28;20229;-77
2021/10/29 05:33:26;;;;;;;12.13;7.27;;;13.30;99.90;;;;;;5114710;27;20262;-76
2021/10/29 05:35:53;;;;;;;12.07;7.43;;;13.20;99.90;;;;;;5133691;27;20691;-76
2021/10/29 05:38:22;;;;;;;12.87;6.87;;;13.30;99.90;;;;;;5133353;27;20201;-77
2021/10/29 05:40:49;;;;;;;10.47;7.27;;;13.20;99.90;;;;;;5134072;27;20232;-77
2021/10/29 05:43:16;;;;;;;13.67;8.37;;;13.20;99.90;;;;;;5133907;27;20242;-77
2021/10/29 05:45:42;;;;;;;15.67;7.40;;;13.10;99.90;;;;;;5133422;27;20300;-77
2021/10/29 05:48:10;;;;;;;11.63;7.83;;;13.20;99.90;;;;;;5133666;27;20228;-77
2021/10/29 05:50:38;;;;;;;11.57;8.20;;;13.20;99.90;;;;;;5117739;27;20252;-77
2021/10/29 05:53:07;;;;;;;13.07;7.77;;;13.20;99.90;;;;;;5119546;27;20197;-77
2021/10/29 05:55:36;;;;;;;11.77;7.90;;;13.10;99.90;;;;;;5118551;27;20245;-77
2021/10/29 05:58:03;;;;;;;12.50;7.70;;;13.20;99.90;;;;;;5112987;28;20289;-77
2021/10/29 06:00:31;;;;;;;13.50;8.13;;;13.10;99.90;;;;;;5112243;28;20202;-77
2021/10/29 06:03:05;;;;;;;10.67;7.47;;;13.20;99.90;;;;;;5113723;28;20213;-77
2021/10/29 06:05:32;;;;;;;12.30;7.73;;;13.10;99.90;;;;;;5133124;27;20289;-78
2021/10/29 06:07:59;;;;;;;13.73;7.93;;;13.10;99.90;;;;;;5133512;27;20217;-77
2021/10/29 06:10:26;;;;;;;14.80;8.30;;;13.10;99.90;;;;;;5133671;27;20287;-77
2021/10/29 06:12:55;;;;;;;13.47;8.03;;;13.10;99.90;;;;;;5132972;27;20228;-77
2021/10/29 06:15:22;;;;;;;10.87;7.87;;;13.10;99.90;;;;;;5133093;27;20280;-78
2021/10/29 06:17:49;;;;;;;14.47;8.50;;;13.00;99.90;;;;;;5133499;27;20193;-77
2021/10/29 06:20:17;;;;;;;13.23;7.93;;;13.00;99.90;;;;;;5132710;27;20287;-77
2021/10/29 06:22:46;;;;;;;12.90;8.37;;;13.10;99.90;;;;;;5112970;28;20194;-77
2021/10/29 06:25:16;;;;;;;13.37;8.27;;;13.10;99.90;;;;;;5112938;28;20284;-78
2021/10/29 06:30:29;;;;;;;11.53;8.07;;;13.10;99.90;;;;;;5116810;28;20290;-78
2021/10/29 06:32:57;;;;;;;13.37;8.93;;;13.20;99.90;;;;;;5116608;28;20717;-78
2021/10/29 06:35:24;;;;;;;14.27;8.13;;;13.10;99.90;;;;;;5116540;28;20202;-78
2021/10/29 06:37:50;;;;;;;13.93;8.70;;;13.10;99.90;;;;;;5117058;27;20217;-78
2021/10/29 06:40:18;;;;;;;13.07;8.20;;;13.10;99.90;;;;;;5116958;28;20229;-78
2021/10/29 06:42:50;;;;;;;12.57;7.73;;;13.20;99.90;;;;;;5116240;28;20201;-78
2021/10/29 06:45:39;;;;;;;12.47;8.00;;;13.10;99.90;;;;;;5116686;28;20194;-78
2021/10/29 06:48:19;;;;;;;14.27;7.87;;;13.20;99.90;;;;;;5114915;28;20244;-78
2021/10/29 06:59:16;;;;;;;10.40;7.40;;;13.20;99.90;;;;;;5093643;28;20189;-79
2021/10/29 07:01:47;;;;;;;15.87;7.90;;;13.20;99.90;;;;;;5093380;28;20213;-78
2021/10/29 07:04:31;;;;;;;11.70;7.27;;;13.30;99.90;;;;;;5093317;28;20391;-79
2021/10/29 07:40:04;;;;;;;7.67;3.67;;;13.30;99.90;;;;;;4916196;29;20208;-79
2021/10/29 07:42:39;;;;;;;10.23;3.73;;;13.40;99.90;;;;;;4916201;29;20200;-79
2021/10/29 07:45:09;;;;;;;7.47;3.40;;;13.50;99.90;;;;;;4915912;29;20588;-78
2021/10/29 07:47:36;;;;;;;9.73;3.63;;;13.50;99.90;;;;;;4961948;28;20574;-78
2021/10/29 07:50:05;;;;;;;7.40;2.60;;;13.60;99.90;;;;;;4988816;28;20769;-78
2021/10/29 07:52:34;;;;;;;6.07;2.53;;;13.90;99.90;;;;;;5030886;28;20231;-78
2021/10/29 07:55:01;;;;;;;9.20;2.60;;;14.40;99.90;;;;;;5051694;28;20714;-78
2021/10/29 07:57:28;;;;;;;6.87;2.17;;;14.50;99.90;;;;;;5073075;27;20654;-78
2021/10/29 07:59:56;;;;;;;5.83;2.20;;;14.40;99.90;;;;;;5135546;27;20246;-79
2021/10/29 08:02:23;;;;;;;6.93;2.13;;;14.30;99.90;;;;;;5135541;27;20307;-77
2021/10/29 08:04:50;;;;;;;8.37;2.20;;;14.10;99.90;;;;;;5135103;27;20228;-78
2021/10/29 08:07:17;;;;;;;8.30;2.23;;;14.10;99.90;;;;;;5135379;27;20252;-78
2021/10/29 08:09:46;;;;;;;4.60;1.83;;;14.50;99.90;;;;;;5135178;27;20284;-79
2021/10/29 08:12:15;;;;;;;6.38;2.10;;;15.60;99.90;;;;;;5120326;27;20225;-78
2021/10/29 08:14:42;;;;;;;10.52;2.47;;;16.40;99.90;;;;;;5114774;27;20280;-78
2021/10/29 08:17:09;;;;;;;5.63;1.80;;;16.80;99.90;;;;;;5114453;28;20233;-78
2021/10/29 08:19:37;;;;;;;8.32;2.15;;;16.90;99.90;;;;;;5115219;27;20221;-78
2021/10/29 08:22:05;;;;;;;8.45;2.15;;;17.50;99.90;;;;;;5130120;27;20749;-78
2021/10/29 08:24:32;;;;;;;7.88;1.92;;;16.60;99.90;;;;;;5134826;27;20209;-78
2021/10/29 08:27:01;;;;;;;9.98;2.15;;;15.70;99.90;;;;;;5134954;27;20308;-78
2021/10/29 08:29:28;;;;;;;7.90;2.00;;;15.60;99.90;;;;;;5135195;27;20207;-78
2021/10/29 08:31:56;;;;;;;10.55;1.90;;;16.20;99.90;;;;;;5134856;27;20288;-77
2021/10/29 08:34:26;;;;;;;6.53;1.63;;;16.60;99.90;;;;;;5122893;27;20621;-78
2021/10/29 08:36:53;;;;;;;6.45;1.92;;;17.60;99.90;;;;;;5114595;28;20194;-79
2021/10/29 08:39:21;;;;;;;8.90;1.98;;;17.00;99.90;;;;;;5124192;27;20261;-78
2021/10/29 08:41:48;;;;;;;10.52;2.28;;;16.00;99.90;;;;;;5134352;27;20235;-77
2021/10/29 08:44:17;;;;;;;9.55;2.03;;;16.20;99.90;;;;;;5134396;27;20203;-78
2021/10/29 08:46:45;;;;;;;9.30;2.00;;;16.80;99.90;;;;;;5134717;27;20680;-77
2021/10/29 08:49:14;;;;;;;7.55;2.05;;;17.80;99.90;;;;;;5134002;27;20591;-77
2021/10/29 08:51:42;;;;;;;9.98;2.05;;;18.00;99.90;;;;;;5134522;27;20193;-78
2021/10/29 08:54:09;;;;;;;6.70;1.80;;;17.60;99.90;;;;;;5131336;27;20660;-78
2021/10/29 08:56:37;;;;;;;7.93;1.63;;;17.00;99.90;;;;;;5113852;28;20205;-78
2021/10/29 08:59:08;;;;;;;8.05;1.85;;;16.80;99.90;;;;;;5114220;28;20225;-78
2021/10/29 09:01:56;;;;;;;9.35;1.98;;;17.20;99.90;;;;;;5113752;28;20202;-78
2021/10/29 09:04:35;;;;;;;9.60;1.88;;;17.10;99.90;;;;;;5113310;28;20240;-78
2021/10/29 09:07:13;;;;;;;8.05;1.85;;;16.60;99.90;;;;;;5113500;28;20225;-78
2021/10/29 09:09:57;;;;;;;13.15;1.88;;;17.10;99.90;;;;;;5113540;28;20287;-78
2021/10/29 09:32:00;;;;;;;11.18;1.67;;;16.80;99.90;;;;;;5133724;27;20675;-78
2021/10/29 09:34:28;;;;;;;8.63;1.58;;;16.30;99.90;;;;;;5130985;27;20214;-78
2021/10/29 09:36:55;;;;;;;7.03;1.60;;;16.70;99.90;;;;;;5112934;27;20189;-77
2021/10/29 09:39:26;;;;;;;13.55;1.90;;;16.50;99.90;;;;;;5113369;28;20289;-78
2021/10/29 09:42:04;;;;;;;7.60;1.70;;;16.30;99.90;;;;;;5113147;28;20201;-78
2021/10/29 09:44:42;;;;;;;10.93;2.95;;;16.40;99.90;;;;;;5112489;28;20198;-78
2021/10/29 09:47:10;;;;;;;10.57;1.90;;;16.30;99.90;;;;;;5112810;28;20919;-78
2021/10/29 09:49:50;;;;;;;5.82;1.90;;;16.10;99.90;;;;;;5113143;28;20247;-78
2021/10/29 09:52:37;;;;;;;9.90;2.20;;;16.10;99.90;;;;;;5112868;28;20661;-78
2021/10/29 09:55:16;;;;;;;7.90;1.83;;;15.70;99.90;;;;;;5126961;27;20197;-78
2021/10/29 09:57:43;;;;;;;9.93;2.07;;;15.70;99.90;;;;;;5133563;27;20197;-78
2021/10/29 10:00:13;;;;;;;9.50;1.70;;;16.00;99.90;;;;;;5133228;27;20224;-78
2021/10/29 10:02:42;;;;;;;8.70;1.83;;;15.60;99.90;;;;;;5133396;27;20220;-78
2021/10/29 10:05:11;;;;;;;7.80;1.90;;;15.70;99.90;;;;;;5132931;27;20606;-78
2021/10/29 10:07:41;;;;;;;7.93;2.40;;;15.60;99.90;;;;;;5133421;27;20312;-78
2021/10/29 10:10:10;;;;;;;10.30;1.63;;;15.60;99.90;;;;;;5133189;27;20249;-78
2021/10/29 10:12:44;;;;;;;6.97;2.13;;;15.50;99.90;;;;;;5133095;27;20207;-78
2021/10/29 10:15:12;;;;;;;9.20;2.50;;;15.80;99.90;;;;;;5133248;27;20224;-78
2021/10/29 10:17:39;;;;;;;12.93;2.40;;;15.90;99.90;;;;;;5132965;27;20229;-78
2021/10/29 10:20:09;;;;;;;9.87;1.80;;;16.30;99.90;;;;;;5127031;27;20695;-78
2021/10/29 10:22:40;;;;;;;10.20;2.03;;;16.30;99.90;;;;;;5112760;28;20292;-78
2021/10/29 10:25:14;;;;;;;10.10;2.40;;;16.20;99.90;;;;;;5112752;28;20197;-78
2021/10/29 10:28:32;;;;;;;7.50;2.40;;;16.70;99.90;;;;;;5112277;28;20826;-78
2021/10/29 10:40:08;;;;;;;7.72;2.00;;;16.30;99.90;;;;;;5112459;28;20305;-78
2021/10/29 10:42:36;;;;;;;8.85;1.90;;;16.50;99.90;;;;;;5089624;28;20224;-78
2021/10/29 10:45:13;;;;;;;8.00;1.50;;;16.30;99.90;;;;;;5089703;28;20204;-78
2021/10/29 10:47:42;;;;;;;5.05;1.40;;;16.20;99.90;;;;;;5089758;28;20218;-78
2021/10/29 10:50:16;;;;;;;9.30;1.77;;;17.20;99.90;;;;;;5089340;28;20279;-77
2021/10/29 10:53:20;;;;;;;5.65;1.90;;;18.90;99.90;;;;;;5089687;28;20232;-78
2021/10/29 10:55:55;;;;;;;12.48;1.98;;;20.80;99.90;;;;;;5025240;28;20224;-79
2021/10/29 10:58:28;;;;;;;7.57;1.40;;;20.90;99.90;;;;;;5029350;28;20715;-78
2021/10/29 11:01:11;;;;;;;4.95;1.55;;;20.90;99.90;;;;;;5028031;28;20219;-78
2021/10/29 11:04:18;;;;;;;7.15;1.25;;;20.10;99.90;;;;;;5011965;28;20239;-78
2021/10/29 11:13:20;;;;;;;5.72;1.02;;;21.10;99.90;;;;;;5026852;28;20197;-78
2021/10/29 11:16:00;;;;;;;6.78;1.08;;;21.30;99.90;;;;;;4979695;28;20210;-78
2021/10/29 11:18:31;;;;;;;4.50;1.00;;;20.80;99.90;;;;;;5013240;28;20392;-78
2021/10/29 11:21:08;;;;;;;5.15;1.00;;;20.70;99.90;;;;;;5013422;28;20205;-77
2021/10/29 11:23:36;;;;;;;2.45;0.90;;;21.00;99.90;;;;;;4993893;28;20223;-78
2021/10/29 11:26:06;;;;;;;7.70;1.35;;;21.40;99.90;;;;;;5008961;28;20203;-78
2021/10/29 11:28:35;;;;;;;4.93;0.90;;;21.10;99.90;;;;;;5053093;28;20323;-78
2021/10/29 11:31:06;;;;;;;3.97;1.10;;;19.50;99.90;;;;;;5052828;28;20687;-78
2021/10/29 11:33:33;;;;;;;2.28;0.80;;;18.80;99.90;;;;;;5052399;28;20203;-78
2021/10/29 11:36:05;;;;;;;5.28;1.17;;;18.40;99.90;;;;;;5053001;28;20731;-78
2021/10/29 11:38:34;;;;;;;3.78;0.98;;;18.40;99.90;;;;;;5053147;28;20231;-78
2021/10/29 11:41:03;;;;;;;4.53;1.02;;;18.50;99.90;;;;;;5052848;28;20307;-78
2021/10/29 11:43:31;;;;;;;3.65;0.93;;;19.40;99.90;;;;;;5052863;28;20238;-78
2021/10/29 11:46:00;;;;;;;6.07;1.10;;;20.60;99.90;;;;;;5052412;28;20207;-78
2021/10/29 11:48:28;;;;;;;3.90;1.10;;;21.80;99.90;;;;;;5052143;28;20231;-79
2021/10/29 11:51:10;;;;;;;4.22;1.10;;;22.00;99.90;;;;;;5067097;28;20198;-78
2021/10/29 11:53:43;;;;;;;3.85;1.08;;;22.70;99.90;;;;;;5115396;28;20201;-78
2021/10/29 11:56:24;;;;;;;5.03;1.55;;;21.80;99.90;;;;;;5115076;27;20217;-78
2021/10/29 12:05:49;;;;;;;4.50;0.90;;;20.10;99.90;;;;;;5135955;27;20753;-78
2021/10/29 12:07:41;;;;;;;5.18;1.48;;;18.40;99.90;;;;;;5114635;28;20331;-78
2021/10/29 12:10:11;;;;;;;2.70;1.20;;;18.00;99.90;;;;;;5114526;28;20654;-78
2021/10/29 12:12:41;;;;;;;3.67;1.10;;;17.70;99.90;;;;;;5114820;28;20292;-78
2021/10/29 12:15:13;;;;;;;5.20;1.25;;;17.80;99.90;;;;;;5114557;28;20721;-78
2021/10/29 12:17:48;;;;;;;5.18;1.48;;;17.90;99.90;;;;;;5114464;28;20280;-78
2021/10/29 12:20:21;;;;;;;5.93;1.00;;;18.20;99.90;;;;;;5114761;27;20205;-77
2021/10/29 12:22:50;;;;;;;5.20;1.75;;;18.70;99.90;;;;;;5114750;27;20206;-78
2021/10/29 12:25:26;;;;;;;9.30;1.88;;;19.10;99.90;;;;;;5114340;28;20216;-78
2021/10/29 12:27:58;;;;;;;4.47;1.60;;;19.60;99.90;;;;;;5114513;28;20217;-78
2021/10/29 12:30:31;;;;;;;5.15;1.25;;;19.40;99.90;;;;;;5114003;28;20205;-78
2021/10/29 12:38:51;;;;;;;4.55;1.13;;;20.80;99.90;;;;;;5124278;27;20568;-78
2021/10/29 13:03:55;;;;;;;5.28;1.10;;;19.70;99.90;;;;;;5113619;28;20239;-78
2021/10/29 13:06:22;;;;;;;4.65;0.75;;;19.70;99.90;;;;;;5113579;28;20212;-79
2021/10/29 13:08:51;;;;;;;3.53;1.02;;;20.30;99.90;;;;;;5113505;27;20225;-79
2021/10/29 13:11:20;;;;;;;4.53;1.10;;;20.20;99.90;;;;;;5113557;28;20213;-78
2021/10/29 13:13:52;;;;;;;4.97;1.38;;;19.40;99.90;;;;;;5113437;28;20814;-79
2021/10/29 13:16:19;;;;;;;4.93;1.52;;;19.00;99.90;;;;;;5113242;28;20197;-78
2021/10/29 13:19:08;;;;;;;5.18;2.33;;;19.30;99.90;;;;;;5124124;27;20228;-79
2021/10/29 13:54:59;;;;;;;4.57;1.33;;;18.00;99.90;;;;;;5050037;28;20211;-78
2021/10/29 14:30:29;;;;;;;4.53;2.10;;;17.40;99.90;;;;;;5132499;27;20200;-78
2021/10/29 14:33:00;;;;;;;8.45;2.50;;;17.00;99.90;;;;;;5115515;27;20566;-78
2021/10/29 14:35:29;;;;;;;7.68;2.25;;;17.00;99.90;;;;;;5117960;28;20224;-78
2021/10/29 14:38:03;;;;;;;6.57;1.90;;;17.70;99.90;;;;;;5133223;27;20197;-78
2021/10/29 14:40:33;;;;;;;5.43;1.90;;;18.30;99.90;;;;;;5133086;27;20193;-78
2021/10/29 14:43:04;;;;;;;6.43;1.90;;;18.80;99.90;;;;;;5132798;27;20660;-78
2021/10/29 14:45:37;;;;;;;3.38;1.00;;;18.50;99.90;;;;;;5123481;27;20209;-78
2021/10/29 15:14:43;;;;;;;5.72;1.17;;;17.20;99.90;;;;;;5052980;28;20195;-78
2021/10/29 15:16:09;;;;;;;5.63;1.45;;;16.90;99.90;;;;;;5093653;28;20279;-78
2021/10/29 15:27:21;;;;;;;4.20;1.10;;;16.30;99.90;;;;;;5092761;28;20197;-78
2021/10/29 15:29:54;;;;;;;2.78;0.70;;;16.50;99.90;;;;;;5076962;28;20736;-78
2021/10/29 15:43:50;;;;;;;7.00;1.30;;;16.30;99.90;;;;;;5135666;27;20200;-78
2021/10/29 15:46:20;;;;;;;7.70;1.40;;;16.30;99.90;;;;;;5135812;27;20215;-78
2021/10/29 15:48:50;;;;;;;5.33;1.50;;;16.20;99.90;;;;;;5136076;27;20672;-78
2021/10/29 15:51:18;;;;;;;6.47;1.47;;;16.20;99.90;;;;;;5135767;27;20224;-78
2021/10/29 15:53:46;;;;;;;7.03;1.83;;;16.00;99.90;;;;;;5135604;27;20232;-77
2021/10/29 15:56:24;;;;;;;4.87;1.70;;;15.90;99.90;;;;;;5115449;27;20293;-77
2021/10/29 15:58:58;;;;;;;8.93;2.20;;;15.70;99.90;;;;;;5114688;28;20193;-78
2021/10/29 16:01:32;;;;;;;9.03;1.97;;;15.70;99.90;;;;;;5115146;28;20225;-78
2021/10/29 16:16:59;;;;;;;10.53;3.60;;;15.60;99.90;;;;;;5114843;27;20228;-78
2021/10/29 16:17:49;;;;;;;7.60;2.70;;;15.10;99.90;;;;;;5114621;28;20690;-78
2021/10/29 16:20:16;;;;;;;8.23;2.50;;;15.10;99.90;;;;;;5114662;28;20229;-77
2021/10/29 16:22:45;;;;;;;5.33;1.73;;;14.90;99.90;;;;;;5113756;28;20677;-77
2021/10/29 16:25:14;;;;;;;7.17;2.03;;;14.80;99.90;;;;;;5114398;28;20222;-78
2021/10/29 16:27:49;;;;;;;5.70;1.50;;;14.70;99.90;;;;;;5114250;28;20237;-78
2021/10/29 16:30:16;;;;;;;6.80;1.10;;;14.60;99.90;;;;;;5114329;28;20243;-78
2021/10/29 16:35:35;;;;;;;6.13;1.57;;;14.40;99.90;;;;;;5097709;28;20198;-77
2021/10/29 16:38:04;;;;;;;4.77;1.30;;;14.40;99.90;;;;;;5113820;27;20429;-78
2021/10/29 16:40:31;;;;;;;7.70;1.57;;;14.20;99.90;;;;;;5113903;28;20869;-77
2021/10/29 16:42:58;;;;;;;8.77;1.70;;;14.20;99.90;;;;;;5114140;28;20233;-77
2021/10/29 16:45:25;;;;;;;7.83;1.80;;;14.10;99.90;;;;;;5114257;28;20280;-77
2021/10/29 16:47:52;;;;;;;8.93;2.20;;;14.00;99.90;;;;;;5114046;28;20285;-78
2021/10/29 16:50:21;;;;;;;8.33;2.30;;;13.90;99.90;;;;;;5113920;28;20265;-78
2021/10/29 16:52:48;;;;;;;9.50;2.23;;;13.80;99.90;;;;;;5113463;28;20197;-77